Tiptree, United Kingdom
Current Conditions -  °F | °C
As of 2:50 PM on Wednesday 22 Oct 2014 (Local Time) from EGMC Reporting Station
Few Clouds Few Clouds  
Wind Chill: 55°   Ceiling: Unl
Heat Index: 55°   Visibility: 6mi
Dew Point: 43°   Wind: 13mph
Humidity: 63%   Direction: 280°W
Pressure: 30.24"   Gusts: NA
Location:  51.81°N, 0.75°E
Report Text: EGMC 221350Z 28011KT 260V320 9999 FEW036 13/06 Q1024
Loading
Personal Weather Stations






























Interactive Weather Map
Tropical Storm Tracking
New forecast layout! Learn more

10-Day Weather Forecast

Advertisements
Track Severe Weather on mobile